Terminal Aerodrome Forecast
Issued by NWS Blacksburg, VA

Current Version | Previous Version | Graphics & Text | Print | Product List | Glossary On
Versions: 1 2 3 4 5 6 7 8 9 10 11 12 13 14 15 16 17 18 19 20 21 22 23 24 25 26
000
FTUS41 KRNK 141104 AAA
TAFBLF
TAF AMD
KBLF 141104Z 1411/1506 26008KT P6SM VCTS BKN022CB
     FM141300 25006KT P6SM VCSH SCT040 BKN080
     FM142000 26010G18KT 5SM TSRA OVC040CB
     FM150200 26007KT P6SM OVC200=

USA.gov is the U.S. government's official web portal to all federal, state and local government web resources and services.